Time;durP1;ratioP1;P1;durP2;ratioP2;P2;SDS_P1;SDS_P2;PMS_P1;PMS_P2;Temp;Humidity;BMP_temperature;BMP_pressure;BME280_temperature;BME280_humidity;BME280_pressure;Samples;Min_cycle;Max_cycle;Signal;HPM_P1;HPM_P2
2021/07/17 00:00:30;;;;;;;1.30;0.80;;;17.20;62.60;;;;;;5015499;28;20036;-76
2021/07/17 00:02:56;;;;;;;1.52;0.60;;;17.20;62.40;;;;;;5041407;28;20034;-75
2021/07/17 00:05:23;;;;;;;0.80;0.50;;;17.20;62.30;;;;;;5034033;28;20026;-76
2021/07/17 00:07:49;;;;;;;1.48;0.63;;;17.20;62.40;;;;;;5018845;28;20052;-76
2021/07/17 00:10:16;;;;;;;1.58;0.70;;;17.20;62.20;;;;;;5014362;28;20484;-76
2021/07/17 00:12:42;;;;;;;1.05;0.70;;;17.20;62.00;;;;;;5014137;28;20022;-76
2021/07/17 00:15:10;;;;;;;1.10;0.65;;;17.20;62.00;;;;;;5031937;28;20041;-76
2021/07/17 00:17:36;;;;;;;1.23;0.68;;;17.20;61.90;;;;;;5034764;28;20522;-76
2021/07/17 00:20:04;;;;;;;0.80;0.50;;;17.20;61.60;;;;;;5047488;28;20057;-75
2021/07/17 00:22:30;;;;;;;1.20;0.70;;;17.10;61.70;;;;;;5013739;28;20057;-75
2021/07/17 00:24:55;;;;;;;1.20;0.80;;;17.00;62.00;;;;;;5015286;28;20661;-76
2021/07/17 00:27:21;;;;;;;1.10;0.63;;;17.00;62.20;;;;;;5017404;28;20041;-76
2021/07/17 00:29:47;;;;;;;1.10;0.70;;;16.90;62.40;;;;;;5018096;28;20382;-76
2021/07/17 00:32:12;;;;;;;1.70;0.80;;;17.00;62.00;;;;;;5035943;28;20471;-76
2021/07/17 00:34:40;;;;;;;1.10;0.60;;;17.10;61.70;;;;;;5033527;28;20044;-75
2021/07/17 00:37:06;;;;;;;1.13;0.60;;;17.00;61.60;;;;;;5017728;28;20052;-76
2021/07/17 00:39:33;;;;;;;0.90;0.60;;;16.90;61.90;;;;;;5018123;28;20129;-75
2021/07/17 00:41:58;;;;;;;0.70;0.60;;;16.80;62.30;;;;;;5017403;28;20053;-76
2021/07/17 00:44:24;;;;;;;0.80;0.60;;;16.80;62.50;;;;;;5017447;28;20068;-75
2021/07/17 00:46:51;;;;;;;1.50;0.80;;;16.80;62.50;;;;;;5018813;28;20017;-75
2021/07/17 00:49:21;;;;;;;1.00;0.57;;;16.70;62.70;;;;;;5018951;28;20391;-76
2021/07/17 00:51:50;;;;;;;0.85;0.55;;;16.70;63.10;;;;;;5018780;28;20038;-76
2021/07/17 00:54:19;;;;;;;0.80;0.60;;;16.70;63.30;;;;;;5052141;28;20527;-75
2021/07/17 00:56:47;;;;;;;1.25;0.70;;;16.70;63.30;;;;;;5058468;28;20021;-75
2021/07/17 00:59:15;;;;;;;1.35;0.70;;;16.60;63.80;;;;;;5058349;28;20098;-76
2021/07/17 01:01:42;;;;;;;0.93;0.60;;;16.60;64.20;;;;;;5047773;28;20026;-76
2021/07/17 01:04:08;;;;;;;1.25;0.70;;;16.50;63.80;;;;;;5018589;28;20057;-76
2021/07/17 01:06:34;;;;;;;1.98;0.80;;;16.50;63.60;;;;;;5018472;28;20036;-76
2021/07/17 01:09:00;;;;;;;1.70;0.50;;;16.50;63.70;;;;;;5033976;28;20030;-75
2021/07/17 01:11:26;;;;;;;1.13;0.70;;;16.50;64.90;;;;;;5025111;28;20029;-75
2021/07/17 01:13:51;;;;;;;0.85;0.50;;;16.30;65.00;;;;;;5036277;28;20029;-75
2021/07/17 01:16:17;;;;;;;0.90;0.65;;;16.30;65.20;;;;;;5027931;28;20111;-75
2021/07/17 01:18:43;;;;;;;0.63;0.50;;;16.30;65.00;;;;;;5018355;28;20037;-75
2021/07/17 01:21:18;;;;;;;1.17;0.80;;;16.30;64.70;;;;;;5018337;28;20022;-76
2021/07/17 01:23:45;;;;;;;0.80;0.68;;;16.30;64.90;;;;;;5017835;28;20037;-75
2021/07/17 01:26:11;;;;;;;1.00;0.65;;;16.30;64.80;;;;;;5035863;28;20021;-76
2021/07/17 01:28:39;;;;;;;0.88;0.60;;;16.30;64.90;;;;;;5036879;28;20759;-76
2021/07/17 01:31:14;;;;;;;1.08;0.85;;;16.00;65.60;;;;;;5035643;28;20048;-76
2021/07/17 01:33:41;;;;;;;0.80;0.60;;;16.20;65.20;;;;;;5016749;28;20084;-76
2021/07/17 01:36:07;;;;;;;0.90;0.73;;;16.30;65.00;;;;;;5018971;28;20113;-75
2021/07/17 01:38:33;;;;;;;1.13;0.75;;;16.40;64.60;;;;;;5037067;28;20065;-76
2021/07/17 01:40:59;;;;;;;0.95;0.68;;;16.50;64.60;;;;;;5037839;28;20037;-76
2021/07/17 01:43:24;;;;;;;1.60;0.70;;;16.50;64.60;;;;;;5037568;28;20029;-75
2021/07/17 01:45:50;;;;;;;1.20;0.68;;;16.50;64.70;;;;;;5021204;28;20027;-75
2021/07/17 01:48:36;;;;;;;1.25;0.63;;;16.50;64.70;;;;;;5016518;28;20511;-75
2021/07/17 01:51:02;;;;;;;0.90;0.68;;;16.50;64.70;;;;;;5016153;28;20504;-76
2021/07/17 01:53:28;;;;;;;1.20;0.80;;;16.50;64.70;;;;;;5037864;28;20056;-76
2021/07/17 01:55:53;;;;;;;1.00;0.80;;;16.50;65.10;;;;;;5055142;28;20479;-75
2021/07/17 01:58:19;;;;;;;0.90;0.70;;;16.50;65.10;;;;;;5017833;28;20037;-76
2021/07/17 02:00:45;;;;;;;1.45;0.90;;;16.50;65.20;;;;;;5017530;28;20038;-75
2021/07/17 02:03:11;;;;;;;1.00;0.60;;;16.50;65.50;;;;;;5017175;28;20056;-76
2021/07/17 02:05:37;;;;;;;2.03;0.88;;;16.50;65.40;;;;;;5017439;28;20026;-75
2021/07/17 02:08:04;;;;;;;1.35;0.85;;;16.50;65.40;;;;;;5017558;28;20070;-75
2021/07/17 02:10:33;;;;;;;1.00;0.70;;;16.40;65.80;;;;;;5017503;28;20022;-75
2021/07/17 02:13:09;;;;;;;0.90;0.70;;;16.30;66.00;;;;;;5017061;28;20026;-76
2021/07/17 02:15:47;;;;;;;1.55;0.85;;;16.30;66.30;;;;;;5015862;28;20040;-76
2021/07/17 02:18:16;;;;;;;1.08;0.80;;;16.30;66.60;;;;;;5017132;28;20488;-75
2021/07/17 02:20:42;;;;;;;0.80;0.60;;;16.30;66.40;;;;;;5032418;28;20029;-75
2021/07/17 02:23:09;;;;;;;1.08;0.70;;;16.30;66.50;;;;;;5017022;28;20096;-75
2021/07/17 02:25:35;;;;;;;1.42;0.80;;;16.30;67.00;;;;;;5026536;28;20500;-75
2021/07/17 02:28:21;;;;;;;1.50;1.02;;;16.30;67.00;;;;;;5035515;28;20382;-76
2021/07/17 02:30:51;;;;;;;1.23;0.80;;;16.30;66.90;;;;;;5036656;28;20517;-75
2021/07/17 02:33:17;;;;;;;1.50;0.90;;;16.30;67.00;;;;;;5032962;28;20026;-76
2021/07/17 02:35:43;;;;;;;1.13;0.80;;;16.30;67.20;;;;;;5017058;28;20444;-76
2021/07/17 02:38:09;;;;;;;0.82;0.55;;;16.30;67.00;;;;;;5016951;28;20026;-75
2021/07/17 02:40:35;;;;;;;2.03;1.10;;;16.20;67.40;;;;;;5016671;28;20022;-76
2021/07/17 02:43:00;;;;;;;1.80;0.90;;;16.20;67.90;;;;;;5015232;28;20052;-75
2021/07/17 02:45:29;;;;;;;0.90;0.75;;;16.10;67.90;;;;;;5016493;28;20026;-75
2021/07/17 02:47:55;;;;;;;0.95;0.80;;;16.10;68.00;;;;;;5031916;28;20063;-75
2021/07/17 02:50:23;;;;;;;1.65;1.00;;;16.10;68.20;;;;;;5016672;28;20021;-75
2021/07/17 02:52:49;;;;;;;1.50;0.90;;;16.00;68.20;;;;;;5025956;28;20048;-76
2021/07/17 02:55:15;;;;;;;1.55;0.90;;;16.00;68.30;;;;;;5054742;28;20443;-76
2021/07/17 02:57:41;;;;;;;1.10;0.80;;;16.00;68.40;;;;;;5037315;28;20033;-75
2021/07/17 03:00:09;;;;;;;2.15;1.05;;;16.00;68.40;;;;;;5036190;28;20041;-76
2021/07/17 03:02:35;;;;;;;1.15;0.80;;;16.00;68.30;;;;;;5023991;28;20061;-76
2021/07/17 03:05:01;;;;;;;2.13;1.00;;;16.00;68.30;;;;;;5016200;28;20033;-76
2021/07/17 03:07:27;;;;;;;0.95;0.70;;;16.00;68.50;;;;;;5018636;28;20029;-75
2021/07/17 03:09:52;;;;;;;1.60;0.93;;;16.00;68.50;;;;;;5036042;28;20121;-75
2021/07/17 03:12:18;;;;;;;1.38;0.90;;;15.90;68.30;;;;;;5030232;28;20456;-76
2021/07/17 03:14:44;;;;;;;1.00;0.80;;;15.90;68.60;;;;;;5016101;28;20637;-75
2021/07/17 03:17:12;;;;;;;1.52;0.80;;;15.80;69.00;;;;;;5016012;28;20072;-75
2021/07/17 03:19:41;;;;;;;1.20;0.93;;;15.80;68.80;;;;;;5016097;28;20038;-75
2021/07/17 03:22:07;;;;;;;1.38;0.88;;;15.80;69.40;;;;;;5026642;28;20116;-76
2021/07/17 03:24:32;;;;;;;1.45;1.08;;;15.70;69.50;;;;;;5035659;28;20030;-75
2021/07/17 03:26:58;;;;;;;1.27;1.00;;;15.70;69.50;;;;;;5032288;28;20031;-75
2021/07/17 03:29:24;;;;;;;1.10;0.73;;;15.70;69.60;;;;;;5014399;28;20531;-75
2021/07/17 03:31:50;;;;;;;1.60;1.08;;;15.80;69.50;;;;;;5016003;28;20029;-76
2021/07/17 03:34:16;;;;;;;1.13;0.95;;;15.70;69.60;;;;;;5015854;28;20026;-76
2021/07/17 03:36:44;;;;;;;2.00;1.10;;;15.70;69.60;;;;;;5016135;28;20044;-76
2021/07/17 03:39:10;;;;;;;1.65;0.82;;;15.60;69.90;;;;;;5015767;28;20059;-76
2021/07/17 03:41:37;;;;;;;1.25;0.90;;;15.50;70.20;;;;;;5015484;28;20485;-75
2021/07/17 03:44:03;;;;;;;1.40;0.80;;;15.50;70.40;;;;;;5015628;28;20026;-75
2021/07/17 03:46:29;;;;;;;1.60;1.20;;;15.40;70.60;;;;;;5015661;28;20061;-76
2021/07/17 03:48:55;;;;;;;1.20;0.95;;;15.40;70.80;;;;;;5015653;28;20022;-75
2021/07/17 03:51:21;;;;;;;1.40;1.00;;;15.50;70.70;;;;;;5015321;28;20025;-75
2021/07/17 03:53:49;;;;;;;1.00;0.80;;;15.50;70.50;;;;;;5040881;28;20052;-75
2021/07/17 03:56:15;;;;;;;1.38;1.00;;;15.50;70.50;;;;;;5032705;28;20034;-76
2021/07/17 03:58:40;;;;;;;1.48;1.10;;;15.40;70.70;;;;;;5015645;28;20036;-76
2021/07/17 04:01:06;;;;;;;1.30;1.20;;;15.40;71.00;;;;;;5013713;28;20832;-75
2021/07/17 04:03:33;;;;;;;2.03;1.20;;;15.30;71.20;;;;;;5015277;28;20128;-75
2021/07/17 04:05:59;;;;;;;1.65;1.20;;;15.20;71.90;;;;;;5014270;28;20535;-75
2021/07/17 04:08:24;;;;;;;1.63;0.90;;;15.20;71.70;;;;;;5015829;28;20029;-75
2021/07/17 04:10:50;;;;;;;1.25;0.95;;;15.20;71.60;;;;;;5015576;28;20022;-76
2021/07/17 04:13:16;;;;;;;1.95;1.10;;;15.20;71.80;;;;;;5014278;28;20180;-76
2021/07/17 04:15:41;;;;;;;1.30;1.10;;;15.20;71.60;;;;;;5015301;28;20057;-76
2021/07/17 04:18:07;;;;;;;2.10;1.17;;;15.10;71.00;;;;;;5015492;28;20037;-75
2021/07/17 04:20:33;;;;;;;3.05;1.13;;;15.20;71.90;;;;;;5015353;28;20218;-76
2021/07/17 04:22:59;;;;;;;1.55;1.15;;;15.10;71.90;;;;;;5015353;28;20394;-75
2021/07/17 04:25:25;;;;;;;1.92;1.20;;;15.00;72.40;;;;;;5015058;28;20026;-75
2021/07/17 04:27:53;;;;;;;1.15;1.05;;;15.00;72.80;;;;;;5015380;28;20026;-75
2021/07/17 04:30:19;;;;;;;1.40;1.00;;;15.00;72.60;;;;;;5015103;28;20054;-76
2021/07/17 04:32:45;;;;;;;1.70;1.10;;;15.00;72.60;;;;;;5030440;28;20030;-75
2021/07/17 04:35:11;;;;;;;1.45;1.15;;;15.00;72.50;;;;;;5015296;28;20041;-75
2021/07/17 04:37:36;;;;;;;1.65;1.10;;;15.00;72.50;;;;;;5015184;28;20022;-75
2021/07/17 04:40:03;;;;;;;2.00;1.30;;;15.10;72.40;;;;;;5015045;28;20431;-75
2021/07/17 04:42:29;;;;;;;1.50;1.10;;;15.10;72.20;;;;;;5030266;28;20501;-75
2021/07/17 04:44:55;;;;;;;1.20;0.90;;;15.10;72.70;;;;;;5014965;28;20033;-75
2021/07/17 04:47:20;;;;;;;1.75;1.40;;;15.10;72.30;;;;;;5014928;28;20034;-75
2021/07/17 04:49:46;;;;;;;1.50;1.20;;;15.20;72.10;;;;;;5015218;28;20037;-75
2021/07/17 04:52:12;;;;;;;1.60;1.35;;;15.20;72.40;;;;;;5029977;28;20049;-75
2021/07/17 04:54:37;;;;;;;1.52;1.00;;;15.10;72.30;;;;;;5054469;28;20025;-76
2021/07/17 04:57:03;;;;;;;1.48;1.00;;;15.10;72.30;;;;;;5054690;28;20033;-76
2021/07/17 04:59:29;;;;;;;1.38;1.15;;;15.00;72.60;;;;;;5019549;28;20547;-75
2021/07/17 05:01:55;;;;;;;2.85;1.30;;;15.00;73.00;;;;;;5014942;28;20033;-75
2021/07/17 05:04:20;;;;;;;1.95;1.20;;;15.00;72.80;;;;;;5014905;28;20033;-75
2021/07/17 05:06:46;;;;;;;1.27;1.13;;;15.00;72.70;;;;;;5027135;28;20034;-76
2021/07/17 05:09:11;;;;;;;1.67;1.15;;;15.10;72.80;;;;;;5034719;28;20097;-75
2021/07/17 05:11:39;;;;;;;1.48;1.10;;;15.00;73.50;;;;;;5034764;28;20492;-75
2021/07/17 05:14:04;;;;;;;1.50;1.40;;;15.00;73.50;;;;;;5035658;28;20522;-75
2021/07/17 05:16:30;;;;;;;1.20;1.10;;;14.90;73.90;;;;;;5018517;28;20033;-75
2021/07/17 05:18:56;;;;;;;2.40;1.30;;;14.90;74.00;;;;;;5018429;28;20024;-76
2021/07/17 05:21:21;;;;;;;2.10;1.08;;;15.00;74.60;;;;;;5018242;28;20051;-75
2021/07/17 05:23:47;;;;;;;2.55;1.40;;;14.90;74.80;;;;;;5018231;28;20026;-75
2021/07/17 05:26:13;;;;;;;2.58;1.52;;;15.00;74.90;;;;;;5018299;28;20030;-76
2021/07/17 05:28:38;;;;;;;1.58;1.20;;;15.00;74.30;;;;;;5018070;28;20026;-76
2021/07/17 05:31:04;;;;;;;1.63;1.30;;;15.00;74.70;;;;;;5018182;28;20488;-75
2021/07/17 05:33:30;;;;;;;1.58;1.33;;;15.00;74.50;;;;;;5018012;28;20026;-75
2021/07/17 05:35:55;;;;;;;2.00;1.40;;;15.10;74.20;;;;;;5017841;28;20034;-76
2021/07/17 05:38:21;;;;;;;1.42;1.30;;;15.10;75.00;;;;;;5018346;28;20073;-76
2021/07/17 05:40:47;;;;;;;1.42;1.10;;;15.00;75.30;;;;;;5017804;28;20041;-76
2021/07/17 05:43:13;;;;;;;1.50;1.30;;;15.10;75.40;;;;;;5017813;28;20034;-76
2021/07/17 05:45:38;;;;;;;1.48;1.30;;;15.20;74.60;;;;;;5017711;28;20519;-76
2021/07/17 05:48:04;;;;;;;1.45;1.17;;;15.20;75.40;;;;;;5018053;28;20034;-76
2021/07/17 05:50:30;;;;;;;2.05;1.60;;;15.20;74.90;;;;;;5017985;28;20033;-76
2021/07/17 05:52:56;;;;;;;1.63;1.20;;;15.20;75.50;;;;;;5024642;28;20033;-76
2021/07/17 05:55:22;;;;;;;1.77;1.35;;;15.20;75.50;;;;;;5037494;28;20033;-75
2021/07/17 05:57:47;;;;;;;2.17;1.20;;;15.30;75.00;;;;;;5036216;28;20145;-75
2021/07/17 06:00:19;;;;;;;1.60;1.30;;;15.30;74.70;;;;;;5030807;28;20172;-77
2021/07/17 06:02:45;;;;;;;1.70;1.30;;;15.30;75.00;;;;;;5016335;28;20389;-76
2021/07/17 06:05:11;;;;;;;1.52;1.10;;;15.30;75.20;;;;;;5024302;28;20024;-76
2021/07/17 06:07:37;;;;;;;2.05;1.30;;;15.40;75.30;;;;;;5028317;28;20025;-76
2021/07/17 06:10:04;;;;;;;1.60;1.20;;;15.40;74.70;;;;;;5037162;28;20057;-76
2021/07/17 06:12:30;;;;;;;1.00;0.90;;;15.50;75.20;;;;;;5037225;28;20021;-77
2021/07/17 06:14:56;;;;;;;1.30;1.20;;;15.50;76.00;;;;;;5027390;28;20120;-76
2021/07/17 06:17:21;;;;;;;1.70;1.17;;;15.50;75.60;;;;;;5017258;28;20064;-77
2021/07/17 06:19:47;;;;;;;1.30;0.98;;;15.60;75.20;;;;;;5015832;28;20030;-74
2021/07/17 06:22:13;;;;;;;2.45;1.33;;;15.70;75.20;;;;;;5017718;28;20036;-74
2021/07/17 06:24:39;;;;;;;1.58;1.13;;;15.80;74.70;;;;;;5016843;28;20092;-76
2021/07/17 06:27:06;;;;;;;1.65;1.23;;;15.80;74.50;;;;;;5036236;28;20064;-76
2021/07/17 06:29:32;;;;;;;1.40;1.20;;;15.80;75.10;;;;;;5035409;28;20447;-76
2021/07/17 08:35:29;;;;;;;0.45;0.25;;;38.60;22.90;;;;;;5072450;28;20978;-79
2021/07/17 08:37:55;;;;;;;0.70;0.40;;;38.80;22.70;;;;;;5083281;28;20032;-79
2021/07/17 08:40:21;;;;;;;0.60;0.20;;;38.80;22.10;;;;;;5071179;28;20079;-79
2021/07/17 08:42:48;;;;;;;0.80;0.40;;;38.80;22.30;;;;;;5052552;28;20438;-79
2021/07/17 08:45:14;;;;;;;0.50;0.20;;;38.80;22.70;;;;;;5062021;28;20033;-80
2021/07/17 08:47:42;;;;;;;0.50;0.20;;;38.60;22.20;;;;;;5079322;28;20068;-79
2021/07/17 08:50:18;;;;;;;0.40;0.25;;;38.90;22.80;;;;;;5075236;28;20024;-79
2021/07/17 08:52:44;;;;;;;0.70;0.30;;;39.10;22.30;;;;;;5086414;28;20108;-80
2021/07/17 08:55:12;;;;;;;0.60;0.30;;;39.30;22.40;;;;;;5064098;28;20134;-80
2021/07/17 08:57:40;;;;;;;0.50;0.20;;;39.10;22.40;;;;;;5060858;28;21554;-79
2021/07/17 09:00:08;;;;;;;0.40;0.20;;;39.10;20.10;;;;;;5054940;28;20049;-80
2021/07/17 09:02:43;;;;;;;1.45;0.30;;;39.00;22.10;;;;;;5073974;28;20051;-80
2021/07/17 09:05:15;;;;;;;0.63;0.30;;;39.30;21.60;;;;;;5081173;28;20039;-80
2021/07/17 09:07:41;;;;;;;0.50;0.30;;;39.40;22.20;;;;;;5060193;28;20025;-80
2021/07/17 09:10:29;;;;;;;0.82;0.35;;;39.70;21.80;;;;;;5083652;28;20433;-79
2021/07/17 09:13:21;;;;;;;;;;;39.70;21.10;;;;;;5072665;28;20024;-79
2021/07/17 09:15:50;;;;;;;0.47;0.25;;;39.80;21.30;;;;;;5060704;28;19908;-79
2021/07/17 09:18:34;;;;;;;0.40;0.20;;;39.70;20.70;;;;;;5053527;28;20025;-79
2021/07/17 09:21:02;;;;;;;0.57;0.30;;;39.80;20.90;;;;;;5051429;28;20017;-79
2021/07/17 09:23:29;;;;;;;0.57;0.30;;;39.80;20.50;;;;;;5070607;28;20090;-79
2021/07/17 09:25:55;;;;;;;0.60;0.30;;;39.90;20.50;;;;;;5086682;28;20027;-78
2021/07/17 09:28:25;;;;;;;0.52;0.22;;;40.10;21.00;;;;;;5071687;28;20029;-79
2021/07/17 09:30:54;;;;;;;0.68;0.30;;;40.10;20.60;;;;;;5071664;28;20039;-78
2021/07/17 09:33:20;;;;;;;0.63;0.30;;;40.00;20.30;;;;;;5058137;28;20063;-78
2021/07/17 09:35:47;;;;;;;0.60;0.38;;;40.20;21.00;;;;;;5051646;28;20507;-79
2021/07/17 09:38:14;;;;;;;0.57;0.30;;;40.20;21.00;;;;;;5051720;28;20029;-78
2021/07/17 09:40:50;;;;;;;0.70;0.40;;;40.30;21.50;;;;;;5051489;28;20083;-79
2021/07/17 09:43:45;;;;;;;0.73;0.30;;;40.00;20.40;;;;;;5051449;28;20588;-78
2021/07/17 09:46:22;;;;;;;1.15;0.25;;;40.20;21.20;;;;;;5041512;28;20029;-78
2021/07/17 09:49:03;;;;;;;0.53;0.30;;;40.50;20.10;;;;;;5044100;28;20030;-78
2021/07/17 09:51:34;;;;;;;1.25;0.40;;;40.20;19.70;;;;;;5038371;28;20622;-79
2021/07/17 09:54:06;;;;;;;0.68;0.30;;;39.90;19.50;;;;;;5038460;28;20057;-79
2021/07/17 09:56:37;;;;;;;0.30;0.20;;;40.10;18.80;;;;;;5038202;28;20124;-79
2021/07/17 09:59:08;;;;;;;0.80;0.38;;;40.30;19.20;;;;;;5052232;28;20437;-79
2021/07/17 10:01:42;;;;;;;0.40;0.20;;;40.00;19.40;;;;;;5038006;28;20056;-79
2021/07/17 10:04:15;;;;;;;0.65;0.35;;;40.20;19.80;;;;;;5056767;28;20079;-79
2021/07/17 10:07:00;;;;;;;1.10;0.40;;;40.30;19.70;;;;;;5048021;28;20030;-78
2021/07/17 10:09:35;;;;;;;0.43;0.25;;;40.20;20.70;;;;;;5037755;28;20076;-79
2021/07/17 10:12:05;;;;;;;0.80;0.40;;;39.80;19.10;;;;;;5037627;28;20539;-79
2021/07/17 10:14:39;;;;;;;0.52;0.30;;;39.70;19.90;;;;;;5037657;28;20041;-78
2021/07/17 10:17:10;;;;;;;1.15;0.30;;;40.00;20.30;;;;;;5037553;28;20044;-78
2021/07/17 10:19:37;;;;;;;0.73;0.30;;;40.10;20.60;;;;;;5037649;28;20399;-78
2021/07/17 10:22:04;;;;;;;0.47;0.30;;;39.80;20.60;;;;;;5037572;28;20026;-78
2021/07/17 10:24:30;;;;;;;0.73;0.30;;;39.50;20.30;;;;;;5037342;28;20148;-78
2021/07/17 10:26:57;;;;;;;0.50;0.28;;;39.10;20.30;;;;;;5037366;28;20029;-79
2021/07/17 10:29:24;;;;;;;0.50;0.30;;;38.40;20.50;;;;;;5037525;28;20029;-78
2021/07/17 10:31:51;;;;;;;0.85;0.30;;;38.60;22.00;;;;;;5038285;28;20064;-78
2021/07/17 10:34:18;;;;;;;0.40;0.30;;;38.30;21.30;;;;;;5056922;28;20052;-78
2021/07/17 10:36:49;;;;;;;1.20;0.40;;;38.30;22.20;;;;;;5057273;28;20051;-79
2021/07/17 10:39:20;;;;;;;0.60;0.30;;;38.10;21.70;;;;;;5057467;28;20025;-78
2021/07/17 10:41:46;;;;;;;0.88;0.28;;;37.80;22.60;;;;;;5043343;28;20021;-78
2021/07/17 10:44:12;;;;;;;0.60;0.30;;;37.10;22.00;;;;;;5037014;28;20038;-78
2021/07/17 10:46:40;;;;;;;1.00;0.40;;;36.40;23.60;;;;;;5037195;28;20373;-77
2021/07/17 10:49:11;;;;;;;0.82;0.28;;;35.70;23.90;;;;;;5036785;28;20028;-77
2021/07/17 10:51:38;;;;;;;0.52;0.22;;;35.10;23.70;;;;;;5037140;28;20484;-77
2021/07/17 10:54:10;;;;;;;0.57;0.20;;;34.50;24.60;;;;;;5067305;28;20480;-79
2021/07/17 10:56:39;;;;;;;1.00;0.40;;;33.90;26.00;;;;;;5068582;28;20574;-79
2021/07/17 10:59:25;;;;;;;1.55;0.40;;;33.60;26.70;;;;;;5036387;28;20025;-79
2021/07/17 11:02:12;;;;;;;0.57;0.30;;;33.30;27.60;;;;;;5033068;28;20821;-79
2021/07/17 11:04:44;;;;;;;1.25;0.38;;;32.90;27.30;;;;;;5056599;28;20123;-77
2021/07/17 11:07:19;;;;;;;1.10;0.38;;;32.70;28.90;;;;;;5039240;28;20027;-77
2021/07/17 11:09:59;;;;;;;0.85;0.43;;;32.40;27.90;;;;;;5036683;28;20021;-79
2021/07/17 11:12:28;;;;;;;0.70;0.40;;;32.10;28.50;;;;;;5036593;28;20026;-79
2021/07/17 11:14:55;;;;;;;0.80;0.30;;;31.90;29.20;;;;;;5036222;28;20021;-79
2021/07/17 11:17:54;;;;;;;0.95;0.32;;;31.60;29.50;;;;;;5036514;28;20109;-78
2021/07/17 11:20:31;;;;;;;1.00;0.60;;;31.50;29.50;;;;;;5032361;28;20050;-79
2021/07/17 11:23:07;;;;;;;1.00;0.50;;;31.50;30.20;;;;;;5036645;28;20037;-79
2021/07/17 11:25:34;;;;;;;0.85;0.50;;;31.50;29.30;;;;;;5036525;28;20025;-79
2021/07/17 11:28:00;;;;;;;0.93;0.43;;;31.30;30.10;;;;;;5036021;28;20100;-79
2021/07/17 11:30:33;;;;;;;0.80;0.40;;;31.00;30.70;;;;;;5036331;28;20052;-79
2021/07/17 11:33:04;;;;;;;2.05;0.43;;;31.10;31.20;;;;;;5036263;28;20026;-78
2021/07/17 11:35:31;;;;;;;0.70;0.40;;;30.90;31.30;;;;;;5035970;28;20053;-78
2021/07/17 11:37:56;;;;;;;0.75;0.57;;;30.90;32.70;;;;;;5054244;28;20025;-78
2021/07/17 11:40:22;;;;;;;1.02;0.47;;;30.60;31.40;;;;;;5056271;28;20044;-78
2021/07/17 11:42:48;;;;;;;0.82;0.40;;;30.60;31.00;;;;;;5048842;28;20025;-79
2021/07/17 11:45:14;;;;;;;0.80;0.47;;;30.80;31.70;;;;;;5034408;28;20029;-78
2021/07/17 11:47:40;;;;;;;0.82;0.50;;;30.80;32.30;;;;;;5035975;28;20048;-78
2021/07/17 11:50:06;;;;;;;0.70;0.40;;;30.40;32.00;;;;;;5035959;28;20032;-78
2021/07/17 11:52:34;;;;;;;1.15;0.55;;;30.20;31.80;;;;;;5040613;28;20056;-78
2021/07/17 11:55:07;;;;;;;0.70;0.40;;;30.20;32.70;;;;;;5075880;28;20078;-78
2021/07/17 11:57:34;;;;;;;1.13;0.57;;;30.10;32.10;;;;;;5057983;28;20033;-78
2021/07/17 12:00:06;;;;;;;0.88;0.57;;;30.10;32.70;;;;;;5055559;28;20025;-79
2021/07/17 12:02:33;;;;;;;1.08;0.60;;;30.00;33.60;;;;;;5055568;28;20029;-79
2021/07/17 12:05:14;;;;;;;0.80;0.50;;;30.20;34.00;;;;;;5051682;28;20376;-78
2021/07/17 12:07:40;;;;;;;0.95;0.47;;;30.20;33.60;;;;;;5035695;28;20554;-83
2021/07/17 12:10:17;;;;;;;0.60;0.40;;;30.30;33.80;;;;;;5035541;28;20029;-79
2021/07/17 12:12:49;;;;;;;0.85;0.50;;;30.30;32.80;;;;;;5049648;28;20028;-78
2021/07/17 12:15:23;;;;;;;0.80;0.43;;;30.30;34.20;;;;;;5050670;28;20059;-79
2021/07/17 12:17:49;;;;;;;1.23;0.60;;;30.30;33.30;;;;;;5035613;28;20086;-77
2021/07/17 12:20:19;;;;;;;1.00;0.47;;;30.40;32.40;;;;;;5042710;28;20487;-80
2021/07/17 12:22:57;;;;;;;1.13;0.55;;;30.30;32.90;;;;;;5055604;28;20033;-79
2021/07/17 12:25:29;;;;;;;1.00;0.52;;;30.20;33.90;;;;;;5053616;28;20029;-78
2021/07/17 12:27:59;;;;;;;1.20;0.50;;;30.20;33.50;;;;;;5054451;28;20395;-79
2021/07/17 12:30:28;;;;;;;1.48;0.57;;;30.10;32.10;;;;;;5044132;28;20040;-79
2021/07/17 12:33:19;;;;;;;1.10;0.50;;;30.00;32.70;;;;;;5053317;28;20029;-78
2021/07/17 12:35:47;;;;;;;1.45;0.40;;;30.00;33.20;;;;;;5071553;28;20044;-79
2021/07/17 12:38:33;;;;;;;0.70;0.40;;;30.00;32.90;;;;;;5067639;28;20546;-79
2021/07/17 12:41:07;;;;;;;1.00;0.50;;;30.00;35.00;;;;;;5032512;28;20045;-79
2021/07/17 12:43:43;;;;;;;0.77;0.40;;;29.90;34.30;;;;;;5043819;28;20036;-78
2021/07/17 12:46:11;;;;;;;0.90;0.50;;;29.90;35.40;;;;;;5047209;28;20029;-78
2021/07/17 12:48:52;;;;;;;1.67;0.40;;;30.00;35.70;;;;;;5050742;28;20013;-79
2021/07/17 12:51:25;;;;;;;0.65;0.38;;;30.00;34.80;;;;;;5076646;28;20079;-79
2021/07/17 12:53:54;;;;;;;0.80;0.50;;;30.00;35.50;;;;;;5052669;28;20113;-79
2021/07/17 12:56:33;;;;;;;0.80;0.40;;;30.00;34.40;;;;;;5053728;28;20036;-79
2021/07/17 12:59:01;;;;;;;1.05;0.50;;;30.10;35.40;;;;;;5052788;28;20021;-79
2021/07/17 13:01:27;;;;;;;0.80;0.50;;;30.00;34.40;;;;;;5053615;28;20021;-79
2021/07/17 13:03:53;;;;;;;1.05;0.60;;;30.10;34.40;;;;;;5051669;28;20025;-79
2021/07/17 13:06:19;;;;;;;0.60;0.40;;;30.10;36.00;;;;;;5052161;28;20036;-79
2021/07/17 13:09:01;;;;;;;0.80;0.50;;;30.10;34.60;;;;;;5052115;28;20021;-79
2021/07/17 13:11:27;;;;;;;1.08;0.55;;;30.10;33.70;;;;;;5052366;28;20140;-79
2021/07/17 13:13:56;;;;;;;0.80;0.50;;;30.00;34.60;;;;;;5053417;28;20025;-76
2021/07/17 13:16:26;;;;;;;0.57;0.38;;;30.00;35.00;;;;;;5053308;28;20633;-77
2021/07/17 13:18:52;;;;;;;0.52;0.30;;;29.90;35.00;;;;;;5050118;28;20036;-77
2021/07/17 13:21:19;;;;;;;0.80;0.40;;;29.80;35.10;;;;;;5053686;28;20387;-77
2021/07/17 13:23:57;;;;;;;1.42;0.50;;;29.90;36.00;;;;;;5057110;28;20044;-77
2021/07/17 13:26:25;;;;;;;1.10;0.50;;;30.00;36.40;;;;;;5054102;28;20013;-77
2021/07/17 13:28:52;;;;;;;1.10;0.52;;;30.00;36.20;;;;;;5056106;28;20108;-77
2021/07/17 13:31:24;;;;;;;0.73;0.40;;;29.90;36.00;;;;;;5056543;28;20423;-79
2021/07/17 13:34:06;;;;;;;0.80;0.35;;;29.90;35.20;;;;;;5057368;28;20136;-79
2021/07/17 13:36:31;;;;;;;1.15;0.50;;;29.80;34.90;;;;;;5051872;28;20051;-79
2021/07/17 13:39:01;;;;;;;0.88;0.47;;;29.70;36.80;;;;;;5037548;28;20030;-78
2021/07/17 13:41:26;;;;;;;0.85;0.45;;;29.60;37.70;;;;;;5037336;28;20039;-77
2021/07/17 13:43:53;;;;;;;0.68;0.38;;;29.80;36.60;;;;;;5036713;28;20045;-77
2021/07/17 13:46:22;;;;;;;0.90;0.50;;;29.80;36.60;;;;;;5050828;28;20021;-78
2021/07/17 13:48:48;;;;;;;1.05;0.60;;;29.90;37.20;;;;;;5057363;28;20026;-78
2021/07/17 13:51:14;;;;;;;1.63;0.52;;;29.80;36.80;;;;;;5038458;28;20033;-78
2021/07/17 13:53:40;;;;;;;0.80;0.40;;;29.80;36.70;;;;;;5056832;28;20411;-78
2021/07/17 13:56:09;;;;;;;0.93;0.45;;;29.90;37.40;;;;;;5050129;28;20033;-78
2021/07/17 13:58:36;;;;;;;1.00;0.40;;;29.80;35.30;;;;;;5036700;28;20412;-79
2021/07/17 14:01:07;;;;;;;0.90;0.50;;;30.00;35.70;;;;;;5052049;28;20408;-79
2021/07/17 14:03:39;;;;;;;0.90;0.50;;;29.90;35.20;;;;;;5055474;28;20068;-78
2021/07/17 14:06:09;;;;;;;1.27;0.40;;;29.80;36.30;;;;;;5055379;28;20028;-78
2021/07/17 14:08:37;;;;;;;0.65;0.30;;;29.90;37.30;;;;;;5055285;28;20025;-78
2021/07/17 14:11:08;;;;;;;0.70;0.40;;;29.80;35.90;;;;;;5036877;28;20532;-79
2021/07/17 14:13:35;;;;;;;0.85;0.50;;;29.80;36.30;;;;;;5036686;28;20032;-76
2021/07/17 14:16:02;;;;;;;1.10;0.32;;;29.90;36.60;;;;;;5048151;28;20029;-80
2021/07/17 14:18:31;;;;;;;0.80;0.40;;;29.80;37.60;;;;;;5039572;28;20088;-88
2021/07/17 14:20:58;;;;;;;0.90;0.40;;;29.80;36.20;;;;;;5037611;28;20075;-88
2021/07/17 14:23:24;;;;;;;1.08;0.47;;;29.80;37.10;;;;;;5037628;28;20033;-80
2021/07/17 14:25:52;;;;;;;0.47;0.28;;;29.80;36.60;;;;;;5044894;28;20028;-83
2021/07/17 14:28:18;;;;;;;0.85;0.40;;;29.90;36.50;;;;;;5057693;28;20056;-83
2021/07/17 14:30:44;;;;;;;1.08;0.50;;;29.90;37.40;;;;;;5057252;28;20017;-84
2021/07/17 14:33:11;;;;;;;0.90;0.40;;;29.90;37.10;;;;;;5037956;28;20040;-88
2021/07/17 14:35:38;;;;;;;1.17;0.35;;;29.80;38.40;;;;;;5037589;28;20049;-82
2021/07/17 14:38:05;;;;;;;0.95;0.40;;;29.80;36.90;;;;;;5042377;28;20647;-85
2021/07/17 14:40:31;;;;;;;1.13;0.50;;;29.70;40.20;;;;;;5038717;28;20760;-83
2021/07/17 14:42:57;;;;;;;1.13;0.50;;;29.80;38.10;;;;;;5064506;28;20025;-83
2021/07/17 14:45:23;;;;;;;1.00;0.47;;;29.80;38.50;;;;;;5055578;28;20394;-85
2021/07/17 14:47:49;;;;;;;0.80;0.40;;;29.90;38.00;;;;;;5039339;28;20045;-82
2021/07/17 14:50:16;;;;;;;1.00;0.40;;;30.00;37.50;;;;;;5063691;28;20029;-84
2021/07/17 14:52:42;;;;;;;0.85;0.30;;;29.90;38.00;;;;;;5049716;28;20021;-84
2021/07/17 14:55:08;;;;;;;0.82;0.47;;;29.80;39.60;;;;;;5054203;28;20027;-83
2021/07/17 14:57:37;;;;;;;0.77;0.40;;;29.70;38.70;;;;;;5053295;28;20031;-83